sensor_id;sensor_type;location;lat;lon;timestamp;temperature;humidity
16060;DHT22;8134;49.552;7.632;2023-01-25T10:42:35;3.10;99.90
16060;DHT22;8134;49.552;7.632;2023-01-25T10:45:09;3.10;99.90
16060;DHT22;8134;49.552;7.632;2023-01-25T10:47:34;3.00;99.90
16060;DHT22;8134;49.552;7.632;2023-01-25T10:50:01;3.10;99.90
16060;DHT22;8134;49.552;7.632;2023-01-25T10:52:28;3.20;99.90
16060;DHT22;8134;49.552;7.632;2023-01-25T10:55:14;3.30;99.90
16060;DHT22;8134;49.552;7.632;2023-01-25T10:57:43;3.30;99.90
16060;DHT22;8134;49.552;7.632;2023-01-25T11:02:53;3.40;99.90
16060;DHT22;8134;49.552;7.632;2023-01-25T11:07:53;3.30;99.90
16060;DHT22;8134;49.552;7.632;2023-01-25T11:13:10;3.30;99.90
16060;DHT22;8134;49.552;7.632;2023-01-25T11:15:42;3.30;99.90
16060;DHT22;8134;49.552;7.632;2023-01-25T11:18:24;3.30;99.90
16060;DHT22;8134;49.552;7.632;2023-01-25T11:21:04;3.30;99.90
16060;DHT22;8134;49.552;7.632;2023-01-25T11:23:29;3.30;99.90
16060;DHT22;8134;49.552;7.632;2023-01-25T11:28:52;3.40;99.90
16060;DHT22;8134;49.552;7.632;2023-01-25T11:31:29;3.40;99.90
16060;DHT22;8134;49.552;7.632;2023-01-25T11:33:55;3.30;99.90
16060;DHT22;8134;49.552;7.632;2023-01-25T11:54:52;3.10;99.90
16060;DHT22;8134;49.552;7.632;2023-01-25T12:05:11;2.80;99.90
16060;DHT22;8134;49.552;7.632;2023-01-25T12:07:50;2.90;99.90
16060;DHT22;8134;49.552;7.632;2023-01-25T12:20:27;2.70;99.90
16060;DHT22;8134;49.552;7.632;2023-01-25T12:25:46;2.80;99.90
16060;DHT22;8134;49.552;7.632;2023-01-25T12:28:14;2.70;99.90
16060;DHT22;8134;49.552;7.632;2023-01-25T12:30:46;2.70;99.90
16060;DHT22;8134;49.552;7.632;2023-01-25T12:35:40;2.80;99.90
16060;DHT22;8134;49.552;7.632;2023-01-25T12:38:41;2.80;99.90
16060;DHT22;8134;49.552;7.632;2023-01-25T12:40:58;2.70;99.90
16060;DHT22;8134;49.552;7.632;2023-01-25T12:45:52;2.60;99.90
16060;DHT22;8134;49.552;7.632;2023-01-25T12:48:34;2.80;99.90
16060;DHT22;8134;49.552;7.632;2023-01-25T12:51:00;2.90;99.90
16060;DHT22;8134;49.552;7.632;2023-01-25T12:53:36;2.90;99.90
16060;DHT22;8134;49.552;7.632;2023-01-25T12:56:05;2.80;99.90
16060;DHT22;8134;49.552;7.632;2023-01-25T13:01:37;2.80;99.90
16060;DHT22;8134;49.552;7.632;2023-01-25T13:09:58;2.60;99.90
16060;DHT22;8134;49.552;7.632;2023-01-25T13:12:25;2.60;99.90
16060;DHT22;8134;49.552;7.632;2023-01-25T13:14:51;2.60;99.90
16060;DHT22;8134;49.552;7.632;2023-01-25T13:17:27;2.70;99.90
16060;DHT22;8134;49.552;7.632;2023-01-25T13:19:54;2.70;99.90
16060;DHT22;8134;49.552;7.632;2023-01-25T13:25:05;2.80;99.90
16060;DHT22;8134;49.552;7.632;2023-01-25T13:27:32;2.90;99.90
16060;DHT22;8134;49.552;7.632;2023-01-25T13:40:00;3.00;99.90
16060;DHT22;8134;49.552;7.632;2023-01-25T13:44:58;2.80;99.90
16060;DHT22;8134;49.552;7.632;2023-01-25T13:47:24;2.70;99.90
16060;DHT22;8134;49.552;7.632;2023-01-25T13:49:54;2.70;99.90
16060;DHT22;8134;49.552;7.632;2023-01-25T13:52:22;2.80;99.90
16060;DHT22;8134;49.552;7.632;2023-01-25T13:54:48;2.90;99.90
16060;DHT22;8134;49.552;7.632;2023-01-25T13:57:21;2.80;99.90
16060;DHT22;8134;49.552;7.632;2023-01-25T13:59:47;2.80;99.90
16060;DHT22;8134;49.552;7.632;2023-01-25T14:02:19;2.80;99.90
16060;DHT22;8134;49.552;7.632;2023-01-25T14:04:46;2.80;99.90
16060;DHT22;8134;49.552;7.632;2023-01-25T14:07:13;2.80;99.90
16060;DHT22;8134;49.552;7.632;2023-01-25T14:09:41;2.80;99.90
16060;DHT22;8134;49.552;7.632;2023-01-25T14:12:07;2.70;99.90
16060;DHT22;8134;49.552;7.632;2023-01-25T14:14:35;2.70;99.90
16060;DHT22;8134;49.552;7.632;2023-01-25T14:19:29;2.70;99.90
16060;DHT22;8134;49.552;7.632;2023-01-25T14:24:39;2.90;99.90
16060;DHT22;8134;49.552;7.632;2023-01-25T14:27:05;2.90;99.90
16060;DHT22;8134;49.552;7.632;2023-01-25T14:29:31;3.00;99.90
16060;DHT22;8134;49.552;7.632;2023-01-25T14:31:58;3.10;99.90
16060;DHT22;8134;49.552;7.632;2023-01-25T14:34:24;2.90;99.90
16060;DHT22;8134;49.552;7.632;2023-01-25T14:37:03;2.80;99.90
16060;DHT22;8134;49.552;7.632;2023-01-25T14:39:28;2.60;99.90
16060;DHT22;8134;49.552;7.632;2023-01-25T14:41:54;2.60;99.90
16060;DHT22;8134;49.552;7.632;2023-01-25T14:44:20;2.90;99.90
16060;DHT22;8134;49.552;7.632;2023-01-25T14:46:48;2.80;99.90
16060;DHT22;8134;49.552;7.632;2023-01-25T14:49:22;2.80;99.90
16060;DHT22;8134;49.552;7.632;2023-01-25T14:54:26;2.80;99.90
16060;DHT22;8134;49.552;7.632;2023-01-25T14:56:55;2.80;99.90
16060;DHT22;8134;49.552;7.632;2023-01-25T14:59:37;2.90;99.90
16060;DHT22;8134;49.552;7.632;2023-01-25T15:02:16;3.00;99.90
16060;DHT22;8134;49.552;7.632;2023-01-25T15:10:11;3.00;99.90
16060;DHT22;8134;49.552;7.632;2023-01-25T15:12:38;3.00;99.90
16060;DHT22;8134;49.552;7.632;2023-01-25T15:15:15;2.80;99.90
16060;DHT22;8134;49.552;7.632;2023-01-25T15:17:43;2.60;99.90
16060;DHT22;8134;49.552;7.632;2023-01-25T15:22:53;2.70;99.90
16060;DHT22;8134;49.552;7.632;2023-01-25T15:25:20;2.60;99.90
16060;DHT22;8134;49.552;7.632;2023-01-25T15:27:46;2.60;99.90
16060;DHT22;8134;49.552;7.632;2023-01-25T15:30:15;2.60;99.90
16060;DHT22;8134;49.552;7.632;2023-01-25T15:32:41;2.60;99.90
16060;DHT22;8134;49.552;7.632;2023-01-25T15:35:11;2.60;99.90
16060;DHT22;8134;49.552;7.632;2023-01-25T15:37:37;2.70;99.90
16060;DHT22;8134;49.552;7.632;2023-01-25T15:40:03;2.80;99.90
16060;DHT22;8134;49.552;7.632;2023-01-25T15:42:28;2.70;99.90
16060;DHT22;8134;49.552;7.632;2023-01-25T15:44:55;2.70;99.90
16060;DHT22;8134;49.552;7.632;2023-01-25T15:47:21;2.70;99.90
16060;DHT22;8134;49.552;7.632;2023-01-25T15:49:46;2.60;99.90
16060;DHT22;8134;49.552;7.632;2023-01-25T15:52:13;2.50;99.90
16060;DHT22;8134;49.552;7.632;2023-01-25T15:54:39;2.40;99.90
16060;DHT22;8134;49.552;7.632;2023-01-25T15:57:05;2.40;99.90
16060;DHT22;8134;49.552;7.632;2023-01-25T15:59:30;2.40;99.90
16060;DHT22;8134;49.552;7.632;2023-01-25T16:01:56;2.30;99.90
16060;DHT22;8134;49.552;7.632;2023-01-25T16:04:21;2.30;99.90
16060;DHT22;8134;49.552;7.632;2023-01-25T16:06:52;2.30;99.90
16060;DHT22;8134;49.552;7.632;2023-01-25T16:09:21;2.20;99.90
16060;DHT22;8134;49.552;7.632;2023-01-25T16:11:54;2.20;99.90
16060;DHT22;8134;49.552;7.632;2023-01-25T16:14:20;2.20;99.90
16060;DHT22;8134;49.552;7.632;2023-01-25T16:16:48;2.10;99.90
16060;DHT22;8134;49.552;7.632;2023-01-25T16:19:15;2.20;99.90
16060;DHT22;8134;49.552;7.632;2023-01-25T16:21:41;2.20;99.90
16060;DHT22;8134;49.552;7.632;2023-01-25T16:24:07;2.30;99.90
16060;DHT22;8134;49.552;7.632;2023-01-25T16:26:32;2.30;99.90
16060;DHT22;8134;49.552;7.632;2023-01-25T16:28:59;2.50;99.90
16060;DHT22;8134;49.552;7.632;2023-01-25T16:31:24;2.50;99.90
16060;DHT22;8134;49.552;7.632;2023-01-25T16:33:50;2.40;99.90
16060;DHT22;8134;49.552;7.632;2023-01-25T16:36:17;2.40;99.90
16060;DHT22;8134;49.552;7.632;2023-01-25T16:38:43;2.40;99.90
16060;DHT22;8134;49.552;7.632;2023-01-25T16:41:08;2.20;99.90
16060;DHT22;8134;49.552;7.632;2023-01-25T16:43:44;2.20;99.90
16060;DHT22;8134;49.552;7.632;2023-01-25T16:46:14;2.20;99.90
16060;DHT22;8134;49.552;7.632;2023-01-25T16:48:40;2.20;99.90
16060;DHT22;8134;49.552;7.632;2023-01-25T16:51:05;2.10;99.90
16060;DHT22;8134;49.552;7.632;2023-01-25T16:53:31;2.10;99.90
16060;DHT22;8134;49.552;7.632;2023-01-25T16:55:57;2.30;99.90
16060;DHT22;8134;49.552;7.632;2023-01-25T16:58:23;2.40;99.90
16060;DHT22;8134;49.552;7.632;2023-01-25T17:00:49;2.40;99.90
16060;DHT22;8134;49.552;7.632;2023-01-25T17:03:14;2.30;99.90
16060;DHT22;8134;49.552;7.632;2023-01-25T17:05:40;2.20;99.90
16060;DHT22;8134;49.552;7.632;2023-01-25T17:08:05;2.10;99.90
16060;DHT22;8134;49.552;7.632;2023-01-25T17:10:31;2.10;99.90
16060;DHT22;8134;49.552;7.632;2023-01-25T17:13:00;2.10;99.90
16060;DHT22;8134;49.552;7.632;2023-01-25T17:15:25;2.00;99.90
16060;DHT22;8134;49.552;7.632;2023-01-25T17:17:50;2.00;99.90
16060;DHT22;8134;49.552;7.632;2023-01-25T17:20:16;2.00;99.90
16060;DHT22;8134;49.552;7.632;2023-01-25T17:22:42;2.00;99.90
16060;DHT22;8134;49.552;7.632;2023-01-25T17:25:11;2.00;99.90
16060;DHT22;8134;49.552;7.632;2023-01-25T17:27:36;2.10;99.90
16060;DHT22;8134;49.552;7.632;2023-01-25T17:30:02;2.00;99.90
16060;DHT22;8134;49.552;7.632;2023-01-25T17:32:28;2.00;99.90
16060;DHT22;8134;49.552;7.632;2023-01-25T17:34:53;2.00;99.90
16060;DHT22;8134;49.552;7.632;2023-01-25T17:37:23;2.10;99.90
16060;DHT22;8134;49.552;7.632;2023-01-25T17:39:48;2.10;99.90
16060;DHT22;8134;49.552;7.632;2023-01-25T17:42:14;2.10;99.90
16060;DHT22;8134;49.552;7.632;2023-01-25T17:44:40;2.20;99.90
16060;DHT22;8134;49.552;7.632;2023-01-25T17:47:05;2.30;99.90
16060;DHT22;8134;49.552;7.632;2023-01-25T17:49:31;2.30;99.90
16060;DHT22;8134;49.552;7.632;2023-01-25T17:51:56;2.30;99.90
16060;DHT22;8134;49.552;7.632;2023-01-25T17:54:22;2.40;99.90
16060;DHT22;8134;49.552;7.632;2023-01-25T17:56:47;2.30;99.90
16060;DHT22;8134;49.552;7.632;2023-01-25T17:59:13;2.20;99.90
16060;DHT22;8134;49.552;7.632;2023-01-25T18:01:38;2.10;99.90
16060;DHT22;8134;49.552;7.632;2023-01-25T18:04:07;1.90;99.90
16060;DHT22;8134;49.552;7.632;2023-01-25T18:06:32;1.80;99.90
16060;DHT22;8134;49.552;7.632;2023-01-25T18:08:59;1.80;99.90
16060;DHT22;8134;49.552;7.632;2023-01-25T18:11:25;1.90;99.90
16060;DHT22;8134;49.552;7.632;2023-01-25T18:13:52;2.10;99.90
16060;DHT22;8134;49.552;7.632;2023-01-25T18:16:19;2.20;99.90
16060;DHT22;8134;49.552;7.632;2023-01-25T18:18:48;2.30;99.90
16060;DHT22;8134;49.552;7.632;2023-01-25T18:21:16;2.40;99.90
16060;DHT22;8134;49.552;7.632;2023-01-25T18:23:46;2.50;99.90
16060;DHT22;8134;49.552;7.632;2023-01-25T18:26:25;2.50;99.90
16060;DHT22;8134;49.552;7.632;2023-01-25T18:28:56;2.50;99.90
16060;DHT22;8134;49.552;7.632;2023-01-25T18:31:22;2.40;99.90
16060;DHT22;8134;49.552;7.632;2023-01-25T18:33:48;2.20;99.90
16060;DHT22;8134;49.552;7.632;2023-01-25T18:36:14;2.10;99.90
16060;DHT22;8134;49.552;7.632;2023-01-25T18:38:40;2.00;99.90
16060;DHT22;8134;49.552;7.632;2023-01-25T18:41:05;1.90;99.90
16060;DHT22;8134;49.552;7.632;2023-01-25T18:43:32;1.90;99.90
16060;DHT22;8134;49.552;7.632;2023-01-25T18:45:58;1.90;99.90
16060;DHT22;8134;49.552;7.632;2023-01-25T18:48:24;1.90;99.90
16060;DHT22;8134;49.552;7.632;2023-01-25T18:50:57;1.90;99.90
16060;DHT22;8134;49.552;7.632;2023-01-25T18:53:22;1.90;99.90
16060;DHT22;8134;49.552;7.632;2023-01-25T18:56:02;1.90;99.90
16060;DHT22;8134;49.552;7.632;2023-01-25T18:58:28;1.90;99.90
16060;DHT22;8134;49.552;7.632;2023-01-25T19:01:04;1.80;99.90
16060;DHT22;8134;49.552;7.632;2023-01-25T19:03:30;1.80;99.90
16060;DHT22;8134;49.552;7.632;2023-01-25T19:05:56;1.80;99.90
16060;DHT22;8134;49.552;7.632;2023-01-25T19:08:22;1.80;99.90
16060;DHT22;8134;49.552;7.632;2023-01-25T19:10:47;1.80;99.90
16060;DHT22;8134;49.552;7.632;2023-01-25T19:13:13;1.80;99.90
16060;DHT22;8134;49.552;7.632;2023-01-25T19:15:38;1.80;99.90
16060;DHT22;8134;49.552;7.632;2023-01-25T19:18:04;1.90;99.90
16060;DHT22;8134;49.552;7.632;2023-01-25T19:20:29;2.00;99.90
16060;DHT22;8134;49.552;7.632;2023-01-25T19:22:55;2.00;99.90
16060;DHT22;8134;49.552;7.632;2023-01-25T19:25:20;2.10;99.90
16060;DHT22;8134;49.552;7.632;2023-01-25T19:27:47;1.90;99.90
16060;DHT22;8134;49.552;7.632;2023-01-25T19:30:12;2.10;99.90
16060;DHT22;8134;49.552;7.632;2023-01-25T19:32:38;2.20;99.90
16060;DHT22;8134;49.552;7.632;2023-01-25T19:35:03;2.20;99.90
16060;DHT22;8134;49.552;7.632;2023-01-25T19:37:31;2.30;99.90
16060;DHT22;8134;49.552;7.632;2023-01-25T19:39:56;2.30;99.90
16060;DHT22;8134;49.552;7.632;2023-01-25T19:42:22;2.30;99.90
16060;DHT22;8134;49.552;7.632;2023-01-25T19:44:47;2.50;99.90
16060;DHT22;8134;49.552;7.632;2023-01-25T19:47:13;2.40;99.90
16060;DHT22;8134;49.552;7.632;2023-01-25T19:49:38;2.40;99.90
16060;DHT22;8134;49.552;7.632;2023-01-25T19:52:04;2.40;99.90
16060;DHT22;8134;49.552;7.632;2023-01-25T19:54:29;2.30;99.90
16060;DHT22;8134;49.552;7.632;2023-01-25T19:56:54;2.30;99.90
16060;DHT22;8134;49.552;7.632;2023-01-25T19:59:22;2.30;99.90
16060;DHT22;8134;49.552;7.632;2023-01-25T20:01:49;2.30;99.90
16060;DHT22;8134;49.552;7.632;2023-01-25T20:04:16;2.30;99.90
16060;DHT22;8134;49.552;7.632;2023-01-25T20:06:43;2.40;99.90
16060;DHT22;8134;49.552;7.632;2023-01-25T20:09:10;2.40;99.90
16060;DHT22;8134;49.552;7.632;2023-01-25T20:11:36;2.30;99.90
16060;DHT22;8134;49.552;7.632;2023-01-25T20:14:03;2.40;99.90
16060;DHT22;8134;49.552;7.632;2023-01-25T20:16:29;2.40;99.90
16060;DHT22;8134;49.552;7.632;2023-01-25T20:18:56;2.50;99.90
16060;DHT22;8134;49.552;7.632;2023-01-25T20:21:23;2.50;99.90
16060;DHT22;8134;49.552;7.632;2023-01-25T20:23:49;2.50;99.90
16060;DHT22;8134;49.552;7.632;2023-01-25T20:26:18;2.50;99.90
16060;DHT22;8134;49.552;7.632;2023-01-25T20:28:44;2.50;99.90
16060;DHT22;8134;49.552;7.632;2023-01-25T20:31:19;2.40;99.90
16060;DHT22;8134;49.552;7.632;2023-01-25T20:33:45;2.40;99.90
16060;DHT22;8134;49.552;7.632;2023-01-25T20:36:11;2.40;99.90
16060;DHT22;8134;49.552;7.632;2023-01-25T20:38:37;2.40;99.90
16060;DHT22;8134;49.552;7.632;2023-01-25T20:41:03;2.40;99.90
16060;DHT22;8134;49.552;7.632;2023-01-25T20:43:29;2.40;99.90
16060;DHT22;8134;49.552;7.632;2023-01-25T20:45:59;2.50;99.90
16060;DHT22;8134;49.552;7.632;2023-01-25T20:48:24;2.60;99.90
16060;DHT22;8134;49.552;7.632;2023-01-25T20:50:50;2.40;99.90
16060;DHT22;8134;49.552;7.632;2023-01-25T20:53:16;2.50;99.90
16060;DHT22;8134;49.552;7.632;2023-01-25T20:55:41;2.50;99.90
16060;DHT22;8134;49.552;7.632;2023-01-25T20:58:07;2.20;99.90
16060;DHT22;8134;49.552;7.632;2023-01-25T21:00:32;2.10;99.90
16060;DHT22;8134;49.552;7.632;2023-01-25T21:02:58;2.00;99.90
16060;DHT22;8134;49.552;7.632;2023-01-25T21:05:24;2.00;99.90
16060;DHT22;8134;49.552;7.632;2023-01-25T21:07:49;1.80;99.90
16060;DHT22;8134;49.552;7.632;2023-01-25T21:10:15;1.80;99.90
16060;DHT22;8134;49.552;7.632;2023-01-25T21:12:40;1.70;99.90
16060;DHT22;8134;49.552;7.632;2023-01-25T21:15:06;1.70;99.90
16060;DHT22;8134;49.552;7.632;2023-01-25T21:17:32;1.70;99.90
16060;DHT22;8134;49.552;7.632;2023-01-25T21:19:57;1.70;99.90
16060;DHT22;8134;49.552;7.632;2023-01-25T21:22:23;1.60;99.90
16060;DHT22;8134;49.552;7.632;2023-01-25T21:24:48;1.50;99.90
16060;DHT22;8134;49.552;7.632;2023-01-25T21:27:14;1.40;99.90
16060;DHT22;8134;49.552;7.632;2023-01-25T21:29:39;1.50;99.90
16060;DHT22;8134;49.552;7.632;2023-01-25T21:32:05;1.60;99.90
16060;DHT22;8134;49.552;7.632;2023-01-25T21:34:30;1.70;99.90
16060;DHT22;8134;49.552;7.632;2023-01-25T21:36:58;1.90;99.90
16060;DHT22;8134;49.552;7.632;2023-01-25T21:39:23;2.00;99.90
16060;DHT22;8134;49.552;7.632;2023-01-25T21:41:48;2.10;99.90
16060;DHT22;8134;49.552;7.632;2023-01-25T21:44:14;2.00;99.90
16060;DHT22;8134;49.552;7.632;2023-01-25T21:46:58;1.90;99.90
16060;DHT22;8134;49.552;7.632;2023-01-25T21:49:24;1.90;99.90
16060;DHT22;8134;49.552;7.632;2023-01-25T21:52:08;1.90;99.90
16060;DHT22;8134;49.552;7.632;2023-01-25T21:54:34;1.90;99.90
16060;DHT22;8134;49.552;7.632;2023-01-25T21:57:03;1.90;99.90
16060;DHT22;8134;49.552;7.632;2023-01-25T21:59:29;2.00;99.90
16060;DHT22;8134;49.552;7.632;2023-01-25T22:01:54;2.00;99.90
16060;DHT22;8134;49.552;7.632;2023-01-25T22:04:20;2.00;99.90
16060;DHT22;8134;49.552;7.632;2023-01-25T22:06:46;1.90;99.90
16060;DHT22;8134;49.552;7.632;2023-01-25T22:09:13;1.90;99.90
16060;DHT22;8134;49.552;7.632;2023-01-25T22:11:38;2.00;99.90
16060;DHT22;8134;49.552;7.632;2023-01-25T22:14:04;2.10;99.90
16060;DHT22;8134;49.552;7.632;2023-01-25T22:16:30;2.00;99.90
16060;DHT22;8134;49.552;7.632;2023-01-25T22:18:55;2.00;99.90
16060;DHT22;8134;49.552;7.632;2023-01-25T22:21:22;1.90;99.90
16060;DHT22;8134;49.552;7.632;2023-01-25T22:23:48;1.80;99.90
16060;DHT22;8134;49.552;7.632;2023-01-25T22:26:15;1.70;99.90
16060;DHT22;8134;49.552;7.632;2023-01-25T22:28:48;1.60;99.90
16060;DHT22;8134;49.552;7.632;2023-01-25T22:31:14;1.60;99.90
16060;DHT22;8134;49.552;7.632;2023-01-25T22:33:40;1.50;99.90
